createdAt,value
2022-10-12T00:01:50.049Z,12.68
2022-10-12T00:04:53.301Z,10.55
2022-10-12T00:07:57.915Z,11.60
2022-10-12T00:11:01.299Z,11.77
2022-10-12T00:14:04.731Z,12.02
2022-10-12T00:17:07.899Z,11.30
2022-10-12T00:20:12.039Z,10.15
2022-10-12T00:23:16.610Z,11.57
2022-10-12T00:26:21.646Z,12.50
2022-10-12T00:29:25.493Z,12.98
2022-10-12T00:32:28.698Z,11.68
2022-10-12T00:35:31.874Z,12.82
2022-10-12T00:38:36.375Z,14.95
2022-10-12T00:41:41.963Z,14.25
2022-10-12T00:44:46.677Z,14.30
2022-10-12T00:47:52.906Z,13.02
2022-10-12T00:50:57.072Z,13.20
2022-10-12T00:54:07.078Z,14.23
2022-10-12T00:57:12.638Z,14.98
2022-10-12T01:00:16.882Z,14.70
2022-10-12T01:03:23.537Z,15.45
2022-10-12T01:06:26.789Z,15.27
2022-10-12T01:09:31.920Z,14.27
2022-10-12T01:12:35.958Z,14.38
2022-10-12T01:15:46.564Z,15.15
2022-10-12T01:18:57.099Z,14.80
2022-10-12T01:22:04.366Z,15.05
2022-10-12T01:25:19.598Z,16.75
2022-10-12T01:28:37.226Z,16.02
2022-10-12T01:31:48.253Z,14.93
2022-10-12T01:34:58.573Z,16.85
2022-10-12T01:38:12.125Z,16.67
2022-10-12T01:41:21.152Z,16.98
2022-10-12T01:44:26.589Z,17.13
2022-10-12T01:47:32.721Z,13.73
2022-10-12T01:50:44.542Z,16.92
2022-10-12T01:53:56.532Z,17.05
2022-10-12T01:57:07.362Z,17.35
2022-10-12T02:00:13.089Z,19.02
2022-10-12T02:03:24.442Z,17.85
2022-10-12T02:06:33.437Z,18.10
2022-10-12T02:09:38.117Z,18.63
2022-10-12T02:12:43.422Z,19.35
2022-10-12T02:15:48.921Z,18.25
2022-10-12T02:18:56.967Z,18.48
2022-10-12T02:22:03.122Z,19.15
2022-10-12T02:25:11.057Z,18.45
2022-10-12T02:28:18.714Z,17.95
2022-10-12T02:31:29.130Z,17.80
2022-10-12T02:34:37.301Z,16.65
2022-10-12T02:37:44.571Z,17.75
2022-10-12T02:40:52.426Z,17.52
2022-10-12T02:44:00.791Z,18.92
2022-10-12T02:47:05.417Z,18.92
2022-10-12T02:50:11.397Z,16.88
2022-10-12T02:53:15.828Z,17.15
2022-10-12T02:56:18.891Z,19.20
2022-10-12T02:59:22.096Z,23.70
2022-10-12T03:02:25.299Z,23.65
2022-10-12T03:05:29.793Z,23.20
2022-10-12T03:08:32.901Z,24.40
2022-10-12T03:11:37.660Z,21.13
2022-10-12T03:14:40.799Z,20.92
2022-10-12T03:17:43.941Z,22.58
2022-10-12T03:20:50.333Z,27.40
2022-10-12T03:23:53.480Z,24.88
2022-10-12T03:26:56.994Z,24.50
2022-10-12T03:30:00.163Z,24.15
2022-10-12T03:34:33.292Z,20.58
2022-10-12T03:37:36.801Z,21.83
2022-10-12T03:40:40.455Z,21.10
2022-10-12T03:43:43.815Z,21.52
2022-10-12T03:46:47.052Z,21.13
2022-10-12T03:49:51.700Z,20.25
2022-10-12T03:52:54.954Z,21.45
2022-10-12T03:55:58.189Z,19.63
2022-10-12T03:59:01.528Z,20.48
2022-10-12T04:02:04.695Z,16.38
2022-10-12T04:05:10.274Z,16.58
2022-10-12T04:08:13.672Z,18.85
2022-10-12T04:11:17.385Z,17.48
2022-10-12T04:14:20.505Z,16.08
2022-10-12T04:17:23.965Z,18.67
2022-10-12T04:20:28.587Z,17.08
2022-10-12T04:23:31.754Z,16.88
2022-10-12T04:26:34.924Z,17.70
2022-10-12T04:29:38.237Z,18.15
2022-10-12T04:32:41.584Z,16.98
2022-10-12T04:35:46.092Z,15.50
2022-10-12T04:38:49.218Z,16.15
2022-10-12T04:41:52.322Z,17.73
2022-10-12T04:44:55.510Z,16.77
2022-10-12T04:47:58.670Z,17.10
2022-10-12T04:51:03.191Z,16.80
2022-10-12T04:54:06.577Z,18.83
2022-10-12T04:57:10.005Z,17.63
2022-10-12T05:00:13.934Z,15.82
2022-10-12T05:03:17.567Z,16.73
2022-10-12T05:06:22.124Z,15.68
2022-10-12T05:09:25.453Z,16.45
2022-10-12T05:12:28.752Z,16.20
2022-10-12T05:15:32.141Z,15.45
2022-10-12T05:18:35.272Z,16.63
2022-10-12T05:21:40.473Z,14.73
2022-10-12T05:24:43.656Z,15.38
2022-10-12T05:27:46.843Z,16.52
2022-10-12T05:30:51.309Z,14.75
2022-10-12T05:33:54.433Z,15.95
2022-10-12T05:36:59.270Z,15.90
2022-10-12T05:40:02.529Z,14.90
2022-10-12T05:43:06.192Z,15.88
2022-10-12T05:46:14.248Z,15.60
2022-10-12T05:49:17.824Z,14.73
2022-10-12T05:52:22.476Z,14.05
2022-10-12T05:55:25.693Z,13.77
2022-10-12T05:58:30.842Z,15.13
2022-10-12T06:01:34.220Z,12.20
2022-10-12T06:04:37.535Z,13.77
2022-10-12T06:07:42.575Z,13.55
2022-10-12T06:10:51.362Z,15.70
2022-10-12T06:13:54.898Z,14.20
2022-10-12T06:16:58.075Z,15.13
2022-10-12T06:20:01.268Z,16.45
2022-10-12T06:23:06.168Z,16.73
2022-10-12T06:26:09.282Z,15.63
2022-10-12T06:29:12.815Z,15.90
2022-10-12T06:32:16.000Z,14.90
2022-10-12T06:35:21.755Z,16.10
2022-10-12T06:38:26.314Z,15.77
2022-10-12T06:41:29.397Z,13.93
2022-10-12T06:44:32.846Z,14.55
2022-10-12T06:47:35.998Z,14.45
2022-10-12T06:50:39.519Z,15.27
2022-10-12T06:53:44.330Z,15.27
2022-10-12T06:56:47.647Z,14.55
2022-10-12T06:59:50.798Z,15.20
2022-10-12T07:02:53.977Z,14.32
2022-10-12T07:05:57.131Z,15.25
2022-10-12T07:09:02.209Z,13.63
2022-10-12T07:12:05.963Z,15.05
2022-10-12T07:15:10.284Z,15.32
2022-10-12T07:18:13.403Z,15.35
2022-10-12T07:21:16.600Z,13.55
2022-10-12T07:24:21.155Z,14.80
2022-10-12T07:27:24.620Z,13.73
2022-10-12T07:30:27.980Z,14.13
2022-10-12T07:33:35.210Z,16.00
2022-10-12T07:36:57.928Z,14.88
2022-10-12T07:40:04.115Z,13.27
2022-10-12T07:43:15.723Z,14.05
2022-10-12T07:46:19.561Z,14.30
2022-10-12T07:49:22.986Z,13.85
2022-10-12T07:52:27.503Z,14.15
2022-10-12T07:55:32.970Z,14.50
2022-10-12T07:58:36.348Z,14.98
2022-10-12T08:01:39.520Z,15.18
2022-10-12T08:04:43.206Z,15.00
2022-10-12T08:07:46.361Z,15.85
2022-10-12T08:10:51.046Z,15.05
2022-10-12T08:13:55.079Z,13.23
2022-10-12T08:16:58.198Z,12.73
2022-10-12T08:20:01.350Z,13.77
2022-10-12T08:23:04.613Z,13.23
2022-10-12T08:26:09.355Z,13.82
2022-10-12T08:29:12.652Z,13.55
2022-10-12T08:32:15.842Z,15.05
2022-10-12T08:35:19.007Z,12.80
2022-10-12T08:38:22.158Z,14.60
2022-10-12T08:41:46.984Z,14.40
2022-10-12T08:45:27.479Z,13.57
2022-10-12T08:48:37.023Z,14.85
2022-10-12T08:51:48.110Z,14.77
2022-10-12T08:54:51.528Z,13.85
2022-10-12T08:57:56.111Z,13.52
2022-10-12T09:01:11.680Z,12.80
2022-10-12T09:04:34.440Z,13.15
2022-10-12T09:07:41.625Z,14.10
2022-10-12T09:10:47.649Z,14.83
2022-10-12T09:14:00.645Z,13.65
2022-10-12T09:17:09.613Z,14.20
2022-10-12T09:20:20.297Z,12.07
2022-10-12T09:23:26.234Z,14.88
2022-10-12T09:26:35.715Z,15.23
2022-10-12T09:29:40.500Z,14.55
2022-10-12T09:34:33.213Z,13.77
2022-10-12T09:37:37.191Z,14.98
2022-10-12T09:40:41.221Z,14.00
2022-10-12T09:43:44.625Z,14.77
2022-10-12T09:46:55.316Z,13.98
2022-10-12T09:50:02.117Z,13.35
2022-10-12T09:53:14.513Z,13.88
2022-10-12T09:56:25.352Z,11.25
2022-10-12T09:59:31.279Z,12.32
2022-10-12T10:02:47.743Z,13.00
2022-10-12T10:06:03.744Z,11.90
2022-10-12T10:09:07.629Z,14.45
2022-10-12T10:12:22.685Z,15.05
2022-10-12T10:15:28.612Z,13.05
2022-10-12T10:18:35.976Z,12.75
2022-10-12T10:21:41.508Z,13.95
2022-10-12T10:24:50.471Z,12.77
2022-10-12T10:28:22.574Z,12.82
2022-10-12T10:31:29.383Z,12.02
2022-10-12T10:34:32.584Z,12.55
2022-10-12T10:37:37.045Z,12.13
2022-10-12T10:40:40.290Z,13.20
2022-10-12T10:43:48.177Z,13.45
2022-10-12T10:49:59.167Z,11.63
2022-10-12T10:53:06.374Z,11.55
2022-10-12T10:56:13.041Z,12.02
2022-10-12T10:59:20.982Z,13.45
2022-10-12T11:02:35.196Z,13.18
2022-10-12T11:05:44.176Z,12.60
2022-10-12T11:08:53.991Z,12.35
2022-10-12T11:12:03.004Z,12.13
2022-10-12T11:15:16.441Z,13.30
2022-10-12T11:18:25.971Z,12.60
2022-10-12T11:21:36.482Z,18.23
2022-10-12T11:24:46.270Z,14.68
2022-10-12T11:27:53.780Z,14.43
2022-10-12T11:30:57.239Z,13.23
2022-10-12T11:34:08.942Z,16.00
2022-10-12T11:37:21.006Z,15.48
2022-10-12T11:40:48.634Z,20.08
2022-10-12T11:43:57.273Z,12.63
2022-10-12T11:47:04.005Z,13.15
2022-10-12T11:50:16.311Z,13.43
2022-10-12T11:53:26.467Z,14.43
2022-10-12T11:56:35.679Z,16.67
2022-10-12T11:59:43.580Z,16.63
2022-10-12T12:05:53.478Z,14.52
2022-10-12T12:09:18.741Z,15.05
2022-10-12T12:12:25.625Z,14.75
2022-10-12T12:15:29.085Z,13.07
2022-10-12T12:18:34.031Z,13.38
2022-10-12T12:22:10.397Z,13.75
2022-10-12T12:25:34.672Z,12.73
2022-10-12T12:28:40.862Z,11.75
2022-10-12T12:31:44.060Z,12.07
2022-10-12T12:35:00.490Z,11.82
2022-10-12T12:38:18.233Z,12.02
2022-10-12T12:41:23.054Z,11.43
2022-10-12T12:44:41.547Z,13.38
2022-10-12T12:47:46.166Z,10.77
2022-10-12T12:50:51.502Z,9.70
2022-10-12T12:54:01.186Z,10.38
2022-10-12T12:57:25.689Z,11.00
2022-10-12T13:00:38.228Z,12.07
2022-10-12T13:04:01.519Z,10.35
2022-10-12T13:07:34.467Z,9.32
2022-10-12T13:10:55.641Z,10.55
2022-10-12T13:14:08.022Z,12.63
2022-10-12T13:17:34.258Z,12.63
2022-10-12T13:20:40.185Z,11.63
2022-10-12T13:23:46.951Z,11.15
2022-10-12T13:26:52.511Z,11.50
2022-10-12T13:29:59.362Z,12.50
2022-10-12T13:33:14.211Z,12.63
2022-10-12T13:36:22.579Z,11.15
2022-10-12T13:39:26.761Z,11.80
2022-10-12T13:42:33.449Z,11.77
2022-10-12T13:45:45.422Z,12.15
2022-10-12T13:49:05.940Z,12.38
2022-10-12T13:52:21.718Z,10.27
2022-10-12T13:55:29.160Z,10.77
2022-10-12T13:58:33.844Z,11.48
2022-10-12T14:01:49.254Z,10.75
2022-10-12T14:04:57.156Z,13.65
2022-10-12T14:08:06.602Z,11.18
2022-10-12T14:11:10.703Z,9.52
2022-10-12T14:14:21.497Z,11.93
2022-10-12T14:17:24.952Z,10.50
2022-10-12T14:20:32.370Z,11.77
2022-10-12T14:23:35.556Z,10.00
2022-10-12T14:26:41.555Z,10.82
2022-10-12T14:29:46.716Z,10.60
2022-10-12T14:32:53.965Z,13.85
2022-10-12T14:36:16.179Z,11.18
2022-10-12T14:39:20.877Z,13.10
2022-10-12T14:42:29.410Z,13.02
2022-10-12T14:45:33.323Z,13.63
2022-10-12T14:48:37.250Z,13.98
2022-10-12T14:51:41.935Z,13.88
2022-10-12T14:54:45.341Z,13.48
2022-10-12T14:57:49.752Z,14.52
2022-10-12T15:00:52.952Z,13.00
2022-10-12T15:03:56.183Z,13.52
2022-10-12T15:07:00.824Z,14.23
2022-10-12T15:10:04.514Z,14.00
2022-10-12T15:13:07.965Z,15.48
2022-10-12T15:16:19.545Z,14.30
2022-10-12T15:19:22.629Z,16.08
2022-10-12T15:22:29.143Z,17.30
2022-10-12T15:25:42.689Z,16.05
2022-10-12T15:28:46.209Z,16.02
2022-10-12T15:34:33.242Z,17.60
2022-10-12T15:37:36.389Z,20.17
2022-10-12T15:40:40.521Z,17.40
2022-10-12T15:43:43.921Z,17.65
2022-10-12T15:46:52.059Z,17.13
2022-10-12T15:49:56.552Z,17.17
2022-10-12T15:52:59.694Z,17.85
2022-10-12T15:56:02.817Z,18.08
2022-10-12T15:59:06.492Z,17.85
2022-10-12T16:02:11.973Z,17.98
2022-10-12T16:05:21.022Z,18.25
2022-10-12T16:08:24.589Z,17.00
2022-10-12T16:11:27.770Z,18.05
2022-10-12T16:14:31.416Z,16.70
2022-10-12T16:17:34.543Z,18.95
2022-10-12T16:20:41.351Z,20.15
2022-10-12T16:23:44.488Z,21.17
2022-10-12T16:26:49.972Z,18.98
2022-10-12T16:29:53.718Z,20.95
2022-10-12T16:32:56.919Z,20.63
2022-10-12T16:36:01.383Z,19.25
2022-10-12T16:39:04.576Z,19.95
2022-10-12T16:42:07.680Z,23.55
2022-10-12T16:45:11.703Z,21.50
2022-10-12T16:48:14.793Z,25.23
2022-10-12T16:51:19.301Z,23.48
2022-10-12T16:54:23.247Z,20.85
2022-10-12T16:57:26.319Z,19.95
2022-10-12T17:00:29.633Z,25.58
2022-10-12T17:03:32.996Z,24.45
2022-10-12T17:06:37.530Z,28.85
2022-10-12T17:09:40.716Z,28.83
2022-10-12T17:12:44.137Z,24.52
2022-10-12T17:15:47.536Z,23.45
2022-10-12T17:18:53.542Z,24.52
2022-10-12T17:22:04.395Z,25.88
2022-10-12T17:25:08.736Z,24.50
2022-10-12T17:28:12.223Z,25.45
2022-10-12T17:31:15.437Z,23.58
2022-10-12T17:34:22.018Z,23.27
2022-10-12T17:37:26.873Z,22.95
2022-10-12T17:40:30.016Z,22.95
2022-10-12T17:43:33.464Z,22.45
2022-10-12T17:46:36.565Z,23.08
2022-10-12T17:49:39.775Z,23.77
2022-10-12T17:52:45.673Z,23.40
2022-10-12T17:55:49.258Z,23.08
2022-10-12T17:58:57.182Z,24.85
2022-10-12T18:02:00.845Z,23.52
2022-10-12T18:05:04.203Z,25.90
2022-10-12T18:08:08.771Z,24.85
2022-10-12T18:11:12.872Z,26.60
2022-10-12T18:14:16.018Z,24.90
2022-10-12T18:17:19.158Z,23.48
2022-10-12T18:20:22.395Z,23.55
2022-10-12T18:23:26.931Z,24.20
2022-10-12T18:26:30.588Z,23.38
2022-10-12T18:29:34.015Z,26.17
2022-10-12T18:32:37.702Z,28.17
2022-10-12T18:35:41.354Z,30.25
2022-10-12T18:38:46.050Z,29.67
2022-10-12T18:41:51.481Z,28.27
2022-10-12T18:44:55.076Z,30.35
2022-10-12T18:47:58.323Z,29.10
2022-10-12T18:51:05.319Z,31.58
2022-10-12T18:54:12.740Z,30.98
2022-10-12T18:57:15.875Z,29.02
2022-10-12T19:00:19.677Z,30.17
2022-10-12T19:03:23.246Z,30.58
2022-10-12T19:06:29.099Z,31.08
2022-10-12T19:09:33.658Z,32.25
2022-10-12T19:12:36.805Z,30.48
2022-10-12T19:15:40.022Z,29.60
2022-10-12T19:18:43.656Z,30.63
2022-10-12T19:21:46.903Z,28.83
2022-10-12T19:24:51.602Z,30.15
2022-10-12T19:27:54.935Z,30.15
2022-10-12T19:30:58.712Z,27.98
2022-10-12T19:34:04.247Z,27.40
2022-10-12T19:37:07.540Z,28.00
2022-10-12T19:40:14.667Z,27.25
2022-10-12T19:43:17.796Z,27.02
2022-10-12T19:46:21.427Z,27.15
2022-10-12T19:49:24.651Z,26.58
2022-10-12T19:52:28.061Z,29.15
2022-10-12T19:55:34.094Z,28.33
2022-10-12T19:58:37.853Z,27.23
2022-10-12T20:01:41.401Z,28.77
2022-10-12T20:04:44.608Z,27.95
2022-10-12T20:07:47.887Z,28.23
2022-10-12T20:10:52.834Z,27.95
2022-10-12T20:13:56.514Z,27.35
2022-10-12T20:17:00.528Z,27.02
2022-10-12T20:20:04.112Z,28.05
2022-10-12T20:23:07.327Z,26.00
2022-10-12T20:26:14.655Z,28.38
2022-10-12T20:29:17.973Z,29.65
2022-10-12T20:32:21.329Z,26.75
2022-10-12T20:35:24.720Z,26.13
2022-10-12T20:38:28.243Z,24.17
2022-10-12T20:41:32.789Z,24.98
2022-10-12T20:44:36.097Z,24.05
2022-10-12T20:47:39.343Z,23.95
2022-10-12T20:50:42.491Z,23.95
2022-10-12T20:53:46.077Z,23.33
2022-10-12T20:56:51.971Z,23.00
2022-10-12T20:59:55.242Z,22.15
2022-10-12T21:02:58.686Z,21.13
2022-10-12T21:06:06.084Z,23.13
2022-10-12T21:09:09.774Z,20.23
2022-10-12T21:12:14.244Z,22.13
2022-10-12T21:15:17.491Z,23.67
2022-10-12T21:18:27.125Z,22.70
2022-10-12T21:21:35.924Z,19.15
2022-10-12T21:24:39.171Z,23.77
2022-10-12T21:27:43.638Z,23.27
2022-10-12T21:34:32.840Z,23.65
2022-10-12T21:37:41.082Z,23.85
2022-10-12T21:40:50.376Z,23.65
2022-10-12T21:44:22.865Z,23.98
2022-10-12T21:47:30.463Z,22.85
2022-10-12T21:51:46.083Z,24.02
2022-10-12T21:54:54.812Z,22.38
2022-10-12T21:58:00.020Z,24.50
2022-10-12T22:01:08.717Z,23.15
2022-10-12T22:04:14.534Z,26.13
2022-10-12T22:07:17.865Z,24.73
2022-10-12T22:10:22.917Z,22.35
2022-10-12T22:13:27.965Z,21.23
2022-10-12T22:16:34.305Z,22.83
2022-10-12T22:19:38.724Z,25.00
2022-10-12T22:22:44.406Z,25.48
2022-10-12T22:25:50.693Z,24.15
2022-10-12T22:28:54.765Z,24.77
2022-10-12T22:31:58.983Z,24.40
2022-10-12T22:35:06.655Z,22.25
2022-10-12T22:38:10.477Z,23.57
2022-10-12T22:41:17.669Z,24.88
2022-10-12T22:44:24.589Z,26.00
2022-10-12T22:47:32.768Z,21.23
2022-10-12T22:50:38.112Z,24.90
2022-10-12T22:53:41.435Z,28.70
2022-10-12T22:56:46.788Z,25.60
2022-10-12T22:59:51.477Z,25.38
2022-10-12T23:03:00.572Z,25.83
2022-10-12T23:06:06.917Z,27.23
2022-10-12T23:09:14.418Z,27.05
2022-10-12T23:12:20.169Z,25.65
2022-10-12T23:15:24.761Z,27.33
2022-10-12T23:18:28.651Z,27.90
2022-10-12T23:21:33.961Z,25.15
2022-10-12T23:24:37.099Z,27.17
2022-10-12T23:27:41.653Z,24.30
2022-10-12T23:30:44.869Z,22.92
2022-10-12T23:33:48.566Z,24.10
2022-10-12T23:36:51.992Z,26.65
2022-10-12T23:39:55.637Z,26.67
2022-10-12T23:43:06.908Z,25.45
2022-10-12T23:46:17.156Z,26.73
2022-10-12T23:49:24.765Z,28.00
2022-10-12T23:52:30.580Z,28.63
2022-10-12T23:55:34.462Z,25.70
2022-10-12T23:58:40.579Z,25.88
